Terminal Aerodrome Forecast
Issued by NWS Portland, OR

Home | Current Version | Previous Version | Text Only | Print | Product List | Glossary On
Versions: 1 2 3 4 5 6 7 8 9 10 11 12 13 14 15 16 17 18 19 20 21 22 23 24 25 26 27 28 29 30 31 32
000
FTUS46 KPQR 302330
TAFEUG
TAF
KEUG 302330Z 3100/3124 23010KT P6SM SCT040 BKN080
     FM310500 19005KT P6SM BKN050
     FM311500 17005KT P6SM BKN100
     FM312000 24008KT P6SM SCT050 BKN100=

USA.gov is the U.S. government's official web portal to all federal, state and local government web resources and services.